createdAt,value
2024-02-07T00:09:15.171Z,4.8
2024-02-07T00:19:14.910Z,4.9
2024-02-07T00:29:15.482Z,4.9
2024-02-07T00:39:14.360Z,4.9
2024-02-07T00:49:14.381Z,4.8
2024-02-07T00:59:14.411Z,4.8
2024-02-07T01:09:14.500Z,4.9
2024-02-07T01:19:17.292Z,4.8
2024-02-07T01:29:14.396Z,4.8
2024-02-07T01:39:14.889Z,4.7
2024-02-07T01:49:14.345Z,4.6
2024-02-07T01:59:19.004Z,4.5
2024-02-07T02:09:14.651Z,4.5
2024-02-07T02:19:14.651Z,4.4
2024-02-07T02:29:16.307Z,4.3
2024-02-07T02:39:14.990Z,4.2
2024-02-07T02:49:14.783Z,4.1
2024-02-07T02:59:15.772Z,4.0
2024-02-07T03:09:16.690Z,4.0
2024-02-07T03:19:15.855Z,3.9
2024-02-07T03:29:15.734Z,3.8
2024-02-07T03:39:17.426Z,3.8
2024-02-07T03:49:14.768Z,3.7
2024-02-07T03:59:14.624Z,3.7
2024-02-07T04:09:14.910Z,3.8
2024-02-07T04:19:14.975Z,3.8
2024-02-07T04:29:15.474Z,3.9
2024-02-07T04:39:14.631Z,3.9
2024-02-07T04:49:14.791Z,3.9
2024-02-07T04:59:14.819Z,4.0
2024-02-07T05:09:14.810Z,3.9
2024-02-07T05:19:15.410Z,4.0
2024-02-07T05:29:15.312Z,4.0
2024-02-07T05:39:15.393Z,4.0
2024-02-07T05:49:16.510Z,4.0
2024-02-07T05:59:16.623Z,4.1
2024-02-07T06:09:18.384Z,4.1
2024-02-07T06:19:16.740Z,4.1
2024-02-07T06:29:16.515Z,4.1
2024-02-07T06:39:16.617Z,4.1
2024-02-07T06:49:18.312Z,4.1
2024-02-07T06:59:19.362Z,4.1
2024-02-07T07:09:18.519Z,4.1
2024-02-07T07:19:18.493Z,4.0
2024-02-07T07:29:16.387Z,4.0
2024-02-07T07:39:16.726Z,4.1
2024-02-07T07:49:18.444Z,4.1
2024-02-07T07:59:16.144Z,4.1
2024-02-07T08:09:16.093Z,4.1
2024-02-07T08:19:16.949Z,4.2
2024-02-07T08:29:17.274Z,4.2
2024-02-07T08:39:16.121Z,4.3
2024-02-07T08:49:16.114Z,4.4
2024-02-07T08:59:16.157Z,4.5
2024-02-07T09:09:17.468Z,4.6
2024-02-07T09:19:16.596Z,4.6
2024-02-07T09:29:18.497Z,4.8
2024-02-07T09:39:17.063Z,4.9
2024-02-07T09:49:16.393Z,5.0
2024-02-07T09:59:18.736Z,5.2
2024-02-07T10:09:15.814Z,5.3
2024-02-07T10:19:17.387Z,5.4
2024-02-07T10:29:16.520Z,5.4
2024-02-07T10:39:16.086Z,5.5
2024-02-07T10:49:17.975Z,5.6
2024-02-07T10:59:16.324Z,5.6
2024-02-07T11:09:16.132Z,5.6
2024-02-07T11:19:18.558Z,5.6
2024-02-07T11:29:16.172Z,6.0
2024-02-07T11:39:16.040Z,6.4
2024-02-07T11:49:16.544Z,6.5
2024-02-07T11:59:16.736Z,6.7
2024-02-07T12:09:16.240Z,6.4
2024-02-07T12:19:17.970Z,6.4
2024-02-07T12:29:16.299Z,6.9
2024-02-07T12:39:16.664Z,7.0
2024-02-07T12:49:17.125Z,6.9
2024-02-07T12:59:16.208Z,7.0
2024-02-07T13:09:16.568Z,6.7
2024-02-07T13:19:16.775Z,6.6
2024-02-07T13:29:17.291Z,6.6
2024-02-07T13:39:16.180Z,6.4
2024-02-07T13:49:17.519Z,6.5
2024-02-07T13:59:18.523Z,6.4
2024-02-07T14:09:16.662Z,6.3
2024-02-07T14:19:17.226Z,6.3
2024-02-07T14:29:16.847Z,6.4
2024-02-07T14:39:19.321Z,6.4
2024-02-07T14:49:20.983Z,6.3
2024-02-07T14:59:18.523Z,6.2
2024-02-07T15:09:17.682Z,6.1
2024-02-07T15:19:18.758Z,6.1
2024-02-07T15:29:18.102Z,5.9
2024-02-07T15:39:16.947Z,5.8
2024-02-07T15:49:16.969Z,5.7
2024-02-07T15:59:16.838Z,5.6
2024-02-07T16:09:17.178Z,5.5
2024-02-07T16:19:16.661Z,5.4
2024-02-07T16:29:16.639Z,5.2
2024-02-07T16:39:16.598Z,5.1
2024-02-07T16:49:16.958Z,4.8
2024-02-07T16:59:17.444Z,4.6
2024-02-07T17:09:16.608Z,4.4
2024-02-07T17:19:16.923Z,4.2
2024-02-07T17:29:19.042Z,4.1
2024-02-07T17:39:17.429Z,3.9
2024-02-07T17:49:16.723Z,3.8
2024-02-07T17:59:16.755Z,3.6
2024-02-07T18:09:17.523Z,3.5
2024-02-07T18:19:17.058Z,3.3
2024-02-07T18:29:16.777Z,3.2
2024-02-07T18:39:17.687Z,3.1
2024-02-07T18:49:17.076Z,2.9
2024-02-07T18:59:17.092Z,2.7
2024-02-07T19:09:19.962Z,2.6
2024-02-07T19:19:17.561Z,2.4
2024-02-07T19:29:17.087Z,2.3
2024-02-07T19:39:17.690Z,2.3
2024-02-07T19:49:17.136Z,2.2
2024-02-07T19:59:17.106Z,2.0
2024-02-07T20:09:17.991Z,2.0
2024-02-07T20:19:16.921Z,1.8
2024-02-07T20:29:16.861Z,1.7
2024-02-07T20:39:17.022Z,1.5
2024-02-07T20:49:18.001Z,1.3
2024-02-07T20:59:17.426Z,1.4
2024-02-07T21:09:17.389Z,1.1
2024-02-07T21:19:19.848Z,1.0
2024-02-07T21:29:17.022Z,1.0
2024-02-07T21:39:17.103Z,0.9
2024-02-07T21:49:18.252Z,0.8
2024-02-07T21:59:18.795Z,0.7
2024-02-07T22:09:18.380Z,0.6
2024-02-07T22:19:17.123Z,0.6
2024-02-07T22:29:17.149Z,0.5
2024-02-07T22:39:17.787Z,0.4
2024-02-07T22:49:17.345Z,0.4
2024-02-07T22:59:17.399Z,0.4
2024-02-07T23:09:17.143Z,0.5
2024-02-07T23:19:17.381Z,0.4
2024-02-07T23:29:17.860Z,0.5
2024-02-07T23:39:17.386Z,0.4
2024-02-07T23:49:17.166Z,0.3
2024-02-07T23:59:18.934Z,0.3
